Time;durP1;ratioP1;P1;durP2;ratioP2;P2;SDS_P1;SDS_P2;PMS_P1;PMS_P2;Temp;Humidity;BMP_temperature;BMP_pressure;BME280_temperature;BME280_humidity;BME280_pressure;Samples;Min_cycle;Max_cycle;Signal;HPM_P1;HPM_P2
2022/12/31 00:00:56;;;;;;;;;;;13.30;99.90;;;;;;5054845;28;19938;-76
2022/12/31 00:03:23;;;;;;;;;;;13.30;99.90;;;;;;5058132;28;20387;-75
2022/12/31 00:05:50;;;;;;;;;;;13.30;99.90;;;;;;5055946;28;19924;-76
2022/12/31 00:08:16;;;;;;;;;;;13.30;99.90;;;;;;5057199;28;20292;-77
2022/12/31 00:10:43;;;;;;;;;;;13.30;99.90;;;;;;5057347;28;19928;-76
2022/12/31 00:13:12;;;;;;;;;;;13.30;99.90;;;;;;5056877;28;20384;-75
2022/12/31 00:15:39;;;;;;;;;;;13.20;99.90;;;;;;5058565;28;19928;-75
2022/12/31 00:18:06;;;;;;;;;;;13.30;99.90;;;;;;5059979;28;20021;-75
2022/12/31 00:20:33;;;;;;;;;;;13.30;99.90;;;;;;5059730;28;19925;-77
2022/12/31 00:23:00;;;;;;;;;;;13.30;99.90;;;;;;5056941;28;19959;-77
2022/12/31 00:25:27;;;;;;;;;;;13.30;99.90;;;;;;5056542;28;19928;-77
2022/12/31 00:27:54;;;;;;;;;;;13.40;99.90;;;;;;5056756;28;20015;-76
2022/12/31 00:30:23;;;;;;;;;;;13.40;99.90;;;;;;5056134;28;20040;-76
2022/12/31 00:32:50;;;;;;;;;;;13.40;99.90;;;;;;5061114;28;19939;-76
2022/12/31 00:35:18;;;;;;;;;;;13.40;99.90;;;;;;5058266;28;19932;-77
2022/12/31 00:37:45;;;;;;;;;;;13.50;99.90;;;;;;5059365;28;20043;-77
2022/12/31 00:40:13;;;;;;;;;;;13.50;99.90;;;;;;5060989;28;19925;-76
2022/12/31 00:42:40;;;;;;;;;;;13.50;99.90;;;;;;5059831;28;19939;-79
2022/12/31 00:45:07;;;;;;;;;;;13.60;99.90;;;;;;5060784;28;20022;-76
2022/12/31 00:47:36;;;;;;;;;;;13.60;99.90;;;;;;5056786;28;19933;-76
2022/12/31 00:50:02;;;;;;;;;;;13.50;99.90;;;;;;5058045;28;20504;-77
2022/12/31 00:52:30;;;;;;;;;;;13.50;99.90;;;;;;5057402;28;19952;-78
2022/12/31 00:54:57;;;;;;;;;;;13.30;99.90;;;;;;5058002;28;20404;-75
2022/12/31 00:57:24;;;;;;;;;;;13.10;99.90;;;;;;5056368;28;19936;-76
2022/12/31 00:59:50;;;;;;;;;;;13.00;99.90;;;;;;5056527;28;21008;-76
2022/12/31 01:02:17;;;;;;;;;;;12.80;99.90;;;;;;5056486;28;19939;-76
2022/12/31 01:04:46;;;;;;;;;;;12.80;99.90;;;;;;5060383;28;20458;-75
2022/12/31 01:07:13;;;;;;;;;;;12.70;99.90;;;;;;5057635;28;19968;-77
2022/12/31 01:09:39;;;;;;;;;;;12.60;99.90;;;;;;5053441;28;20323;-76
2022/12/31 01:12:06;;;;;;;;;;;12.70;99.90;;;;;;5056196;28;19924;-74
2022/12/31 01:14:33;;;;;;;;;;;12.60;99.90;;;;;;5054522;28;20744;-75
2022/12/31 01:17:00;;;;;;;;;;;12.60;99.90;;;;;;5054961;28;19939;-74
2022/12/31 01:19:28;;;;;;;;;;;12.50;99.90;;;;;;5055834;28;19929;-75
2022/12/31 01:21:56;;;;;;;;;;;12.50;99.90;;;;;;5058185;28;19931;-74
2022/12/31 01:24:23;;;;;;;;;;;12.50;99.90;;;;;;5055284;28;20360;-75
2022/12/31 01:26:50;;;;;;;;;;;12.50;99.90;;;;;;5057050;28;20055;-73
2022/12/31 01:29:18;;;;;;;;;;;12.50;99.90;;;;;;5054452;28;19933;-73
2022/12/31 01:31:44;;;;;;;;;;;12.60;99.90;;;;;;5053524;28;21092;-75
2022/12/31 01:34:11;;;;;;;;;;;12.60;99.90;;;;;;5052718;28;19929;-75
2022/12/31 01:36:38;;;;;;;;;;;12.60;99.90;;;;;;5056776;28;19924;-75
2022/12/31 01:39:07;;;;;;;;;;;12.60;99.90;;;;;;5053527;28;19935;-76
2022/12/31 01:41:36;;;;;;;;;;;12.60;99.90;;;;;;5054912;28;19929;-76
2022/12/31 01:44:22;;;;;;;;;;;12.60;99.90;;;;;;5055732;28;19932;-76
2022/12/31 01:46:50;;;;;;;;;;;12.60;99.90;;;;;;5055343;28;20372;-76
2022/12/31 01:49:20;;;;;;;;;;;12.50;99.90;;;;;;5059567;28;19925;-75
2022/12/31 01:51:47;;;;;;;;;;;12.50;99.90;;;;;;5054798;28;19982;-76
2022/12/31 01:54:18;;;;;;;;;;;12.50;99.90;;;;;;5054786;28;19928;-75
2022/12/31 01:56:46;;;;;;;;;;;12.60;99.90;;;;;;5053762;28;19924;-77
2022/12/31 01:59:14;;;;;;;;;;;12.60;99.90;;;;;;5055009;28;19928;-75
2022/12/31 02:01:40;;;;;;;;;;;12.50;99.90;;;;;;5055229;28;20285;-77
2022/12/31 02:04:09;;;;;;;;;;;12.50;99.90;;;;;;5054779;28;20001;-76
2022/12/31 02:06:37;;;;;;;;;;;12.50;99.90;;;;;;5054063;28;19994;-76
2022/12/31 02:09:04;;;;;;;;;;;12.50;99.90;;;;;;5056942;28;19939;-78
2022/12/31 02:11:35;;;;;;;;;;;12.60;99.90;;;;;;5060260;28;19925;-77
2022/12/31 02:14:03;;;;;;;;;;;12.50;99.90;;;;;;5059433;28;19924;-76
2022/12/31 02:16:34;;;;;;;;;;;12.50;99.90;;;;;;5056750;28;20059;-76
2022/12/31 02:19:06;;;;;;;;;;;12.60;99.90;;;;;;5063594;28;19928;-75
2022/12/31 02:21:48;;;;;;;;;;;12.60;99.90;;;;;;5060016;28;23441;-75
2022/12/31 02:24:40;;;;;;;;;;;12.50;99.90;;;;;;5061303;28;19936;-78
2022/12/31 02:27:10;;;;;;;;;;;12.50;99.90;;;;;;5058905;28;19925;-76
2022/12/31 02:29:54;;;;;;;;;;;12.50;99.90;;;;;;5060807;28;20679;-76
2022/12/31 02:32:24;;;;;;;;;;;12.50;99.90;;;;;;5060638;28;19952;-78
2022/12/31 02:34:57;;;;;;;;;;;12.50;99.90;;;;;;5062683;28;20289;-78
2022/12/31 02:37:25;;;;;;;;;;;12.50;99.90;;;;;;5059475;28;20283;-77
2022/12/31 02:39:51;;;;;;;;;;;12.60;99.90;;;;;;5056782;28;19943;-76
2022/12/31 02:42:18;;;;;;;;;;;12.50;99.90;;;;;;5059502;28;19931;-77
2022/12/31 02:44:45;;;;;;;;;;;12.50;99.90;;;;;;5058836;28;20386;-77
2022/12/31 02:47:20;;;;;;;;;;;12.60;99.90;;;;;;5058335;28;20397;-77
2022/12/31 02:49:52;;;;;;;;;;;12.70;99.90;;;;;;5060057;28;19942;-77
2022/12/31 02:52:21;;;;;;;;;;;12.90;99.90;;;;;;5057276;28;19928;-75
2022/12/31 02:54:51;;;;;;;;;;;13.20;99.90;;;;;;5058171;28;19932;-75
2022/12/31 02:57:30;;;;;;;;;;;13.50;99.90;;;;;;5056891;28;20508;-76
2022/12/31 03:02:44;;;;;;;;;;;13.70;99.90;;;;;;5055164;28;19935;-77
2022/12/31 03:05:14;;;;;;;;;;;13.70;99.90;;;;;;5056301;28;19932;-77
2022/12/31 03:07:41;;;;;;;;;;;13.80;99.90;;;;;;5057796;28;19943;-77
2022/12/31 03:10:08;;;;;;;;;;;13.80;99.90;;;;;;5057102;28;20001;-76
2022/12/31 03:12:47;;;;;;;;;;;13.90;99.90;;;;;;5055642;28;19933;-76
2022/12/31 03:15:21;;;;;;;;;;;14.00;99.90;;;;;;5057178;28;19933;-77
2022/12/31 03:17:48;;;;;;;;;;;14.10;99.90;;;;;;5058713;28;19932;-76
2022/12/31 03:23:01;;;;;;;;;;;14.10;99.90;;;;;;5059536;28;19962;-76
2022/12/31 03:25:32;;;;;;;;;;;14.30;99.90;;;;;;5056024;28;19997;-75
2022/12/31 03:27:59;;;;;;;;;;;14.40;99.90;;;;;;5059840;28;19924;-75
2022/12/31 03:30:26;;;;;;;;;;;14.50;99.90;;;;;;5058666;28;19939;-76
2022/12/31 03:32:52;;;;;;;;;;;14.50;99.90;;;;;;5060711;28;19924;-77
2022/12/31 03:35:21;;;;;;;;;;;14.60;99.90;;;;;;5056932;28;19928;-75
2022/12/31 03:37:48;;;;;;;;;;;14.70;99.90;;;;;;5056267;28;20087;-76
2022/12/31 03:40:15;;;;;;;;;;;14.80;99.90;;;;;;5057461;28;21712;-76
2022/12/31 03:42:42;;;;;;;;;;;14.90;99.90;;;;;;5058071;28;19928;-75
2022/12/31 03:45:09;;;;;;;;;;;14.90;99.90;;;;;;5054291;28;19928;-74
2022/12/31 03:47:37;;;;;;;;;;;14.90;99.90;;;;;;5054393;28;20038;-76
2022/12/31 03:50:04;;;;;;;;;;;14.80;99.90;;;;;;5058032;28;19947;-74
2022/12/31 03:52:32;;;;;;;;;;;14.80;99.90;;;;;;5057714;28;20296;-75
2022/12/31 03:55:00;;;;;;;;;;;14.80;99.90;;;;;;5056028;28;20307;-76
2022/12/31 03:57:27;;;;;;;;;;;14.90;99.90;;;;;;5055868;28;20027;-75
2022/12/31 03:59:53;;;;;;;;;;;15.00;99.90;;;;;;5055711;28;19940;-76
2022/12/31 04:02:20;;;;;;;;;;;15.00;99.90;;;;;;5058269;28;20022;-75
2022/12/31 04:04:46;;;;;;;;;;;15.00;99.90;;;;;;5056431;28;19979;-75
2022/12/31 04:07:13;;;;;;;;;;;15.10;99.90;;;;;;5054075;28;19925;-75
2022/12/31 04:09:41;;;;;;;;;;;15.10;99.90;;;;;;5055291;28;19938;-76
2022/12/31 04:12:08;;;;;;;;;;;15.10;99.90;;;;;;5056393;28;19932;-75
2022/12/31 04:14:35;;;;;;;;;;;15.10;99.90;;;;;;5052598;28;19928;-75
2022/12/31 04:17:01;;;;;;;;;;;15.10;99.90;;;;;;5055134;28;20014;-76
2022/12/31 04:19:28;;;;;;;;;;;15.10;99.90;;;;;;5054954;28;19932;-75
2022/12/31 04:21:55;;;;;;;;;;;15.20;99.90;;;;;;5055418;28;19932;-74
2022/12/31 04:24:21;;;;;;;;;;;15.20;99.90;;;;;;5056632;28;19934;-74
2022/12/31 04:26:50;;;;;;;;;;;15.30;99.90;;;;;;5056698;28;19933;-76
2022/12/31 04:29:16;;;;;;;;;;;15.30;99.90;;;;;;5055480;28;20003;-76
2022/12/31 04:31:43;;;;;;;;;;;15.20;99.90;;;;;;5056253;28;19932;-75
2022/12/31 04:34:10;;;;;;;;;;;15.10;99.90;;;;;;5053943;28;19944;-74
2022/12/31 04:36:36;;;;;;;;;;;15.00;99.90;;;;;;5054203;28;19925;-75
2022/12/31 04:39:03;;;;;;;;;;;15.00;99.90;;;;;;5053092;28;19933;-75
2022/12/31 04:41:30;;;;;;;;;;;15.00;99.90;;;;;;5054490;28;19933;-74
2022/12/31 04:43:58;;;;;;;;;;;15.00;99.90;;;;;;5054730;28;19933;-73
2022/12/31 04:46:26;;;;;;;;;;;15.00;99.90;;;;;;5053401;28;19935;-73
2022/12/31 04:48:53;;;;;;;;;;;14.90;99.90;;;;;;5055585;28;20537;-73
2022/12/31 04:51:20;;;;;;;;;;;14.90;99.90;;;;;;5053926;28;19932;-73
2022/12/31 04:53:47;;;;;;;;;;;14.90;99.90;;;;;;5054534;28;20365;-72
2022/12/31 04:56:15;;;;;;;;;;;14.90;99.90;;;;;;5054879;28;19935;-73
2022/12/31 04:58:41;;;;;;;;;;;14.90;99.90;;;;;;5055363;28;20337;-74
2022/12/31 05:01:09;;;;;;;;;;;14.90;99.90;;;;;;5054385;28;19960;-74
2022/12/31 05:03:36;;;;;;;;;;;14.90;99.90;;;;;;5053794;28;19940;-73
2022/12/31 05:06:04;;;;;;;;;;;15.00;99.90;;;;;;5053935;28;20039;-73
2022/12/31 05:08:31;;;;;;;;;;;15.10;99.90;;;;;;5053774;28;19928;-74
2022/12/31 05:10:58;;;;;;;;;;;15.20;99.90;;;;;;5057350;28;19928;-73
2022/12/31 05:13:25;;;;;;;;;;;15.20;99.90;;;;;;5055145;28;20358;-74
2022/12/31 05:15:52;;;;;;;;;;;15.30;99.90;;;;;;5054194;28;19933;-74
2022/12/31 05:18:20;;;;;;;;;;;15.50;99.90;;;;;;5054023;28;19924;-74
2022/12/31 05:20:47;;;;;;;;;;;15.50;99.90;;;;;;5053731;28;19943;-75
2022/12/31 05:23:14;;;;;;;;;;;15.60;99.90;;;;;;5053256;28;19935;-74
2022/12/31 05:25:42;;;;;;;;;;;15.60;99.90;;;;;;5053710;28;20004;-74
2022/12/31 05:28:08;;;;;;;;;;;15.70;99.90;;;;;;5053640;28;19932;-74
2022/12/31 05:30:35;;;;;;;;;;;15.60;99.90;;;;;;5054618;28;20407;-74
2022/12/31 05:33:02;;;;;;;;;;;15.70;99.90;;;;;;5054693;28;19932;-76
2022/12/31 05:35:30;;;;;;;;;;;15.80;99.90;;;;;;5052827;28;19986;-76
2022/12/31 05:37:57;;;;;;;;;;;15.70;99.90;;;;;;5053794;28;19928;-74
2022/12/31 05:40:23;;;;;;;;;;;15.70;99.90;;;;;;5053106;28;19929;-74
2022/12/31 05:42:50;;;;;;;;;;;15.70;99.90;;;;;;5055349;28;19939;-74
2022/12/31 05:45:17;;;;;;;;;;;15.70;99.90;;;;;;5057255;28;20027;-73
2022/12/31 05:47:44;;;;;;;;;;;15.70;99.90;;;;;;5060332;28;20003;-73
2022/12/31 05:50:11;;;;;;;;;;;15.80;99.90;;;;;;5058415;28;19936;-74
2022/12/31 05:52:39;;;;;;;;;;;15.70;99.90;;;;;;5058053;28;20007;-73
2022/12/31 05:55:06;;;;;;;;;;;15.70;99.90;;;;;;5057753;28;19932;-73
2022/12/31 05:57:33;;;;;;;;;;;15.70;99.90;;;;;;5059501;28;20011;-74
2022/12/31 05:59:59;;;;;;;;;;;15.70;99.90;;;;;;5057536;28;20526;-74
2022/12/31 06:02:26;;;;;;;;;;;15.70;99.90;;;;;;5060172;28;19935;-73
2022/12/31 06:04:53;;;;;;;;;;;15.70;99.90;;;;;;5058941;28;19932;-73
2022/12/31 06:07:20;;;;;;;;;;;15.60;99.90;;;;;;5058402;28;22037;-74
2022/12/31 06:09:48;;;;;;;;;;;15.50;99.90;;;;;;5060837;28;19936;-74
2022/12/31 06:12:15;;;;;;;;;;;15.50;99.90;;;;;;5057811;28;19929;-73
2022/12/31 06:14:41;;;;;;;;;;;15.50;99.90;;;;;;5059753;28;19933;-74
2022/12/31 06:17:08;;;;;;;;;;;15.60;99.90;;;;;;5059411;28;19931;-72
2022/12/31 06:19:35;;;;;;;;;;;15.60;99.90;;;;;;5058310;28;20818;-75
2022/12/31 06:22:01;;;;;;;;;;;15.60;99.90;;;;;;5067175;28;20004;-75
2022/12/31 06:24:28;;;;;;;;;;;15.50;99.90;;;;;;5075350;28;19924;-75
2022/12/31 06:26:56;;;;;;;;;;;15.40;99.90;;;;;;5075157;28;20382;-76
2022/12/31 06:29:23;;;;;;;;;;;15.50;99.90;;;;;;5074143;28;19924;-75
2022/12/31 06:31:49;;;;;;;;;;;15.50;99.90;;;;;;5073137;28;19931;-75
2022/12/31 06:34:16;;;;;;;;;;;15.50;99.90;;;;;;5073097;28;20019;-75
2022/12/31 06:36:43;;;;;;;;;;;15.60;99.90;;;;;;5066268;28;20015;-75
2022/12/31 06:39:09;;;;;;;;;;;15.70;99.90;;;;;;5058140;28;19932;-76
2022/12/31 06:41:36;;;;;;;;;;;15.70;99.90;;;;;;5056788;28;19931;-75
2022/12/31 06:44:04;;;;;;;;;;;15.70;99.90;;;;;;5057341;28;19932;-75
2022/12/31 06:46:31;;;;;;;;;;;15.70;99.90;;;;;;5058160;28;19933;-76
2022/12/31 06:48:58;;;;;;;;;;;15.70;99.90;;;;;;5058603;28;19931;-75
2022/12/31 06:51:24;;;;;;;;;;;15.70;99.90;;;;;;5058063;28;19928;-75
2022/12/31 06:53:51;;;;;;;;;;;15.80;99.90;;;;;;5056742;28;20015;-76
2022/12/31 06:56:19;;;;;;;;;;;15.80;99.90;;;;;;5055146;28;19931;-75
2022/12/31 06:58:46;;;;;;;;;;;15.70;99.90;;;;;;5056597;28;19928;-75
2022/12/31 07:01:25;;;;;;;;;;;15.70;99.90;;;;;;5055039;28;19932;-76
2022/12/31 07:03:56;;;;;;;;;;;15.60;99.90;;;;;;5056064;28;19994;-76
2022/12/31 07:06:25;;;;;;;;;;;15.50;99.90;;;;;;5056770;28;19954;-76
2022/12/31 07:08:57;;;;;;;;;;;15.50;99.90;;;;;;5057891;28;19933;-76
2022/12/31 07:11:26;;;;;;;;;;;15.50;99.90;;;;;;5058466;28;19939;-76
2022/12/31 07:14:13;;;;;;;;;;;15.40;99.90;;;;;;5056758;28;19954;-76
2022/12/31 07:16:54;;;;;;;;;;;15.40;99.90;;;;;;5049513;28;20031;-76
2022/12/31 07:19:25;;;;;;;;;;;15.30;99.90;;;;;;5056517;28;19939;-76
2022/12/31 07:21:53;;;;;;;;;;;15.30;99.90;;;;;;5054858;28;20310;-77
2022/12/31 07:24:20;;;;;;;;;;;15.20;99.90;;;;;;5055146;28;20278;-77
2022/12/31 07:26:55;;;;;;;;;;;15.20;99.90;;;;;;5055075;28;19939;-77
2022/12/31 07:29:27;;;;;;;;;;;15.20;99.90;;;;;;5056145;28;19934;-74
2022/12/31 07:32:01;;;;;;;;;;;15.20;99.90;;;;;;5058008;28;20011;-75
2022/12/31 07:34:35;;;;;;;;;;;15.20;99.90;;;;;;5057742;28;20042;-75
2022/12/31 07:37:06;;;;;;;;;;;15.30;99.90;;;;;;5056807;28;19924;-75
2022/12/31 07:39:39;;;;;;;;;;;15.30;99.90;;;;;;5055739;28;19960;-75
2022/12/31 07:42:10;;;;;;;;;;;15.20;99.90;;;;;;5056475;28;19928;-75
2022/12/31 07:44:41;;;;;;;;;;;15.20;99.90;;;;;;5054657;28;20027;-75
2022/12/31 07:47:14;;;;;;;;;;;15.10;99.90;;;;;;5056967;28;19970;-75
2022/12/31 07:49:42;;;;;;;;;;;15.00;99.90;;;;;;5056819;28;19939;-76
2022/12/31 07:52:10;;;;;;;;;;;15.00;99.90;;;;;;5057698;28;19929;-75
2022/12/31 07:54:37;;;;;;;;;;;15.10;99.90;;;;;;5055943;28;19973;-75
2022/12/31 07:57:04;;;;;;;;;;;15.20;99.90;;;;;;5056424;28;20017;-74
2022/12/31 07:59:37;;;;;;;;;;;15.30;99.90;;;;;;5057751;28;20290;-76
2022/12/31 08:02:07;;;;;;;;;;;15.40;99.90;;;;;;5057401;28;19932;-75
2022/12/31 08:04:42;;;;;;;;;;;15.40;99.90;;;;;;5053915;28;19952;-74
2022/12/31 08:07:16;;;;;;;;;;;15.40;99.90;;;;;;5056430;28;19930;-74
2022/12/31 08:09:46;;;;;;;;;;;15.30;99.90;;;;;;5055681;28;19924;-72
2022/12/31 08:12:14;;;;;;;;;;;15.40;99.90;;;;;;5054079;28;20358;-73
2022/12/31 08:14:43;;;;;;;;;;;15.40;99.90;;;;;;5055217;28;19932;-75
2022/12/31 08:17:11;;;;;;;;;;;15.30;99.90;;;;;;5056843;28;19936;-75
2022/12/31 08:19:40;;;;;;;;;;;15.40;99.90;;;;;;5054041;28;19955;-73
2022/12/31 08:22:15;;;;;;;;;;;15.40;99.90;;;;;;5056091;28;19928;-74
2022/12/31 08:24:48;;;;;;;;;;;15.40;99.90;;;;;;5054664;28;19928;-74
2022/12/31 08:27:18;;;;;;;;;;;15.40;99.90;;;;;;5054619;28;19931;-75
2022/12/31 08:29:49;;;;;;;;;;;15.40;99.90;;;;;;5054943;28;19932;-74
2022/12/31 08:32:20;;;;;;;;;;;15.60;99.90;;;;;;5056864;28;19924;-74
2022/12/31 08:34:52;;;;;;;;;;;15.70;99.90;;;;;;5050779;28;19939;-74
2022/12/31 08:37:22;;;;;;;;;;;15.60;99.90;;;;;;5055846;28;19933;-74
2022/12/31 08:39:56;;;;;;;;;;;15.60;99.90;;;;;;5054579;28;19935;-74
2022/12/31 08:42:27;;;;;;;;;;;15.70;99.90;;;;;;5054770;28;19932;-74
2022/12/31 08:44:59;;;;;;;;;;;15.70;99.90;;;;;;5054688;28;19929;-74
2022/12/31 08:47:33;;;;;;;;;;;15.70;99.90;;;;;;5054394;28;20659;-67
2022/12/31 08:50:01;;;;;;;;;;;15.70;99.90;;;;;;5051786;28;19955;-65
2022/12/31 08:52:29;;;;;;;;;;;15.80;99.90;;;;;;5053200;28;20303;-67
2022/12/31 08:54:56;;;;;;;;;;;15.80;99.90;;;;;;5049647;28;19977;-67
2022/12/31 08:57:27;;;;;;;;;;;15.80;99.90;;;;;;5051861;28;20140;-67
2022/12/31 08:59:58;;;;;;;;;;;15.90;99.90;;;;;;5049635;28;19964;-67
2022/12/31 09:02:37;;;;;;;;;;;15.90;99.90;;;;;;5054672;28;19934;-67
2022/12/31 09:05:11;;;;;;;;;;;16.10;99.90;;;;;;5051566;28;19928;-65
2022/12/31 09:07:40;;;;;;;;;;;16.10;99.90;;;;;;5056584;28;20007;-65
2022/12/31 09:10:15;;;;;;;;;;;16.20;99.90;;;;;;5052456;28;19928;-66
2022/12/31 09:12:45;;;;;;;;;;;16.20;99.90;;;;;;5053495;28;20407;-66
2022/12/31 09:15:15;;;;;;;;;;;16.10;99.90;;;;;;5051808;28;19993;-66
2022/12/31 09:17:46;;;;;;;;;;;16.10;99.90;;;;;;5053915;28;20015;-67
2022/12/31 09:20:16;;;;;;;;;;;16.10;99.90;;;;;;5052993;28;20405;-73
2022/12/31 09:22:43;;;;;;;;;;;16.10;99.90;;;;;;5054653;28;19924;-73
2022/12/31 09:25:12;;;;;;;;;;;16.10;99.90;;;;;;5051375;28;19963;-73
2022/12/31 09:27:43;;;;;;;;;;;16.10;99.90;;;;;;5052308;28;19929;-74
2022/12/31 09:30:11;;;;;;;;;;;16.10;99.90;;;;;;5053974;28;19939;-74
2022/12/31 09:32:42;;;;;;;;;;;16.10;99.90;;;;;;5055969;28;20031;-74
2022/12/31 09:35:12;;;;;;;;;;;16.20;99.90;;;;;;5052829;28;19932;-79
2022/12/31 09:37:44;;;;;;;;;;;16.20;99.90;;;;;;5053032;28;19989;-77
2022/12/31 09:40:26;;;;;;;;;;;16.20;99.90;;;;;;5052060;28;19932;-77
2022/12/31 09:43:01;;;;;;;;;;;16.30;99.90;;;;;;5046313;28;19924;-77
2022/12/31 09:45:38;;;;;;;;;;;16.30;99.90;;;;;;5052173;28;19998;-77
2022/12/31 09:48:28;;;;;;;;;;;16.30;99.90;;;;;;5053876;28;19982;-74
2022/12/31 09:50:59;;;;;;;;;;;16.20;99.90;;;;;;5052359;28;19968;-74
2022/12/31 09:53:35;;;;;;;;;;;16.10;99.90;;;;;;5051928;28;20007;-74
2022/12/31 09:56:04;;;;;;;;;;;16.00;99.90;;;;;;5051057;28;20425;-74
2022/12/31 09:58:36;;;;;;;;;;;15.90;99.90;;;;;;5049053;28;20027;-73
2022/12/31 10:01:06;;;;;;;;;;;15.80;99.90;;;;;;5049627;28;19939;-72
2022/12/31 10:03:40;;;;;;;;;;;15.70;99.90;;;;;;5052392;28;20039;-73
2022/12/31 10:06:18;;;;;;;;;;;15.70;99.90;;;;;;5052521;28;20489;-73
2022/12/31 10:08:55;;;;;;;;;;;15.70;99.90;;;;;;5049546;28;19978;-71
2022/12/31 10:11:27;;;;;;;;;;;15.70;99.90;;;;;;5051896;28;19933;-73
2022/12/31 10:14:00;;;;;;;;;;;15.80;99.90;;;;;;5052074;28;19946;-75
2022/12/31 10:16:41;;;;;;;;;;;15.80;99.90;;;;;;5051314;28;20698;-75
2022/12/31 10:19:31;;;;;;;;;;;15.80;99.90;;;;;;5052620;28;20344;-69
2022/12/31 10:22:02;;;;;;;;;;;15.90;99.90;;;;;;5030152;28;19934;-70
2022/12/31 10:24:40;;;;;;;;;;;15.90;99.90;;;;;;5051729;28;19937;-71
2022/12/31 10:27:21;;;;;;;;;;;16.00;99.90;;;;;;5055592;28;20380;-75
2022/12/31 10:29:56;;;;;;;;;;;16.10;99.90;;;;;;5054685;28;20003;-75
2022/12/31 10:32:30;;;;;;;;;;;16.10;99.90;;;;;;5055637;28;19933;-75
2022/12/31 10:35:01;;;;;;;;;;;16.10;99.90;;;;;;5058984;28;19935;-75
2022/12/31 10:37:29;;;;;;;;;;;16.10;99.90;;;;;;5055774;28;19952;-75
2022/12/31 10:40:01;;;;;;;;;;;16.10;99.90;;;;;;5055061;28;19929;-73
2022/12/31 10:42:45;;;;;;;;;;;16.10;99.90;;;;;;5055736;28;20059;-73
2022/12/31 10:45:22;;;;;;;;;;;16.10;99.90;;;;;;5056957;28;20066;-72
2022/12/31 10:48:19;;;;;;;;;;;16.10;99.90;;;;;;5055782;28;20150;-75
2022/12/31 10:50:56;;;;;;;;;;;16.10;99.90;;;;;;4995999;28;20375;-73
2022/12/31 10:53:30;;;;;;;;;;;16.10;99.90;;;;;;5046884;28;19931;-73
2022/12/31 10:56:09;;;;;;;;;;;16.10;99.90;;;;;;5054534;28;20402;-74
2022/12/31 10:58:52;;;;;;;;;;;16.00;99.90;;;;;;5054908;28;20008;-75
2022/12/31 11:01:26;;;;;;;;;;;16.00;99.90;;;;;;5052631;28;19986;-73
2022/12/31 11:04:07;;;;;;;;;;;16.00;99.90;;;;;;5054069;28;19982;-73
2022/12/31 11:07:08;;;;;;;;;;;16.00;99.90;;;;;;5050383;28;20370;-75
2022/12/31 11:09:51;;;;;;;;;;;16.00;99.90;;;;;;5056152;28;20314;-75
2022/12/31 11:12:30;;;;;;;;;;;16.00;99.90;;;;;;5055908;28;20568;-75
2022/12/31 11:15:03;;;;;;;;;;;16.10;99.90;;;;;;5053330;28;20477;-74
2022/12/31 11:17:43;;;;;;;;;;;16.10;99.90;;;;;;5056249;28;19932;-74
2022/12/31 11:20:22;;;;;;;;;;;16.10;99.90;;;;;;5058544;28;19986;-74
2022/12/31 11:22:56;;;;;;;;;;;16.10;99.90;;;;;;5053954;28;19962;-76
2022/12/31 11:25:29;;;;;;;;;;;16.00;99.90;;;;;;5053259;28;19932;-75
2022/12/31 11:28:06;;;;;;;;;;;16.00;99.90;;;;;;5052877;28;19932;-74
2022/12/31 11:30:38;;;;;;;;;;;15.90;99.90;;;;;;5053923;28;20107;-75
2022/12/31 11:33:15;;;;;;;;;;;15.90;99.90;;;;;;5051651;28;19972;-74
2022/12/31 11:35:49;;;;;;;;;;;15.90;99.90;;;;;;5056899;28;20027;-75
2022/12/31 11:38:21;;;;;;;;;;;15.80;99.90;;;;;;5055232;28;19932;-75
2022/12/31 11:40:57;;;;;;;;;;;15.70;99.90;;;;;;5054546;28;19932;-75
2022/12/31 11:43:30;;;;;;;;;;;15.60;99.90;;;;;;5055523;28;20299;-74
2022/12/31 11:46:03;;;;;;;;;;;15.70;99.90;;;;;;5053841;28;20314;-74
2022/12/31 11:48:34;;;;;;;;;;;15.70;99.90;;;;;;5055254;28;19924;-76
2022/12/31 11:51:09;;;;;;;;;;;15.80;99.90;;;;;;5051353;28;20305;-75
2022/12/31 11:53:52;;;;;;;;;;;15.90;99.90;;;;;;5053023;28;20017;-75
2022/12/31 11:56:20;;;;;;;;;;;15.90;99.90;;;;;;5071951;22;21000;-74
2022/12/31 11:58:50;;;;;;;;;;;15.90;99.90;;;;;;5074411;28;20374;-75
2022/12/31 12:01:18;;;;;;;;;;;15.90;99.90;;;;;;5049096;28;19932;-75
2022/12/31 12:03:46;;;;;;;;;;;15.90;99.90;;;;;;5072548;28;19976;-74
2022/12/31 12:06:13;;;;;;;;;;;16.00;99.90;;;;;;5072871;28;19989;-74
2022/12/31 12:08:40;;;;;;;;;;;16.00;99.90;;;;;;5077105;28;19925;-75
2022/12/31 12:11:08;;;;;;;;;;;16.00;99.90;;;;;;5072513;28;19928;-76
2022/12/31 12:13:35;;;;;;;;;;;16.00;99.90;;;;;;5074130;28;19924;-74
2022/12/31 12:16:06;;;;;;;;;;;16.10;99.90;;;;;;5072568;28;20018;-75
2022/12/31 12:18:34;;;;;;;;;;;16.10;99.90;;;;;;5082354;28;20395;-74
2022/12/31 12:21:03;;;;;;;;;;;16.20;99.90;;;;;;5074026;28;20425;-74
2022/12/31 12:23:31;;;;;;;;;;;16.20;99.90;;;;;;5075953;28;20334;-74
2022/12/31 12:25:58;;;;;;;;;;;16.20;99.90;;;;;;5075461;28;19935;-76
2022/12/31 12:28:26;;;;;;;;;;;16.30;99.90;;;;;;5076831;28;19939;-72
2022/12/31 12:30:54;;;;;;;;;;;16.30;99.90;;;;;;5076532;28;19930;-74
2022/12/31 12:33:23;;;;;;;;;;;16.30;99.90;;;;;;5080255;28;20364;-76
2022/12/31 12:35:50;;;;;;;;;;;16.40;99.90;;;;;;5077469;28;19939;-75
2022/12/31 12:38:20;;;;;;;;;;;16.40;99.90;;;;;;5057144;28;20643;-75
2022/12/31 12:40:54;;;;;;;;;;;16.40;99.90;;;;;;5076592;28;20309;-75
2022/12/31 12:43:22;;;;;;;;;;;16.30;99.90;;;;;;5074855;28;19987;-76
2022/12/31 12:45:49;;;;;;;;;;;16.40;99.90;;;;;;5076963;28;20317;-76
2022/12/31 12:48:19;;;;;;;;;;;16.30;99.90;;;;;;5076138;28;20454;-75
2022/12/31 12:50:48;;;;;;;;;;;16.30;99.90;;;;;;5076277;28;19929;-75
2022/12/31 12:53:19;;;;;;;;;;;16.30;99.90;;;;;;5079162;28;20452;-77
2022/12/31 12:55:50;;;;;;;;;;;16.20;99.90;;;;;;5077492;28;19935;-74
2022/12/31 12:58:21;;;;;;;;;;;16.20;99.90;;;;;;5076239;28;20284;-77
2022/12/31 13:00:50;;;;;;;;;;;16.20;99.90;;;;;;5074843;28;20504;-76
2022/12/31 13:03:23;;;;;;;;;;;16.10;99.90;;;;;;5075577;28;19928;-76
2022/12/31 13:06:05;;;;;;;;;;;16.10;99.90;;;;;;5077621;28;19981;-76
2022/12/31 13:08:42;;;;;;;;;;;16.00;99.90;;;;;;5076178;28;19962;-77
2022/12/31 13:11:17;;;;;;;;;;;16.00;99.90;;;;;;5071535;28;20013;-75
2022/12/31 13:13:47;;;;;;;;;;;16.10;99.90;;;;;;5073608;28;19938;-75
2022/12/31 13:16:18;;;;;;;;;;;16.00;99.90;;;;;;5069276;28;19928;-75
2022/12/31 13:18:51;;;;;;;;;;;16.00;99.90;;;;;;5076132;28;20288;-74
2022/12/31 13:21:28;;;;;;;;;;;16.00;99.90;;;;;;5075843;28;19928;-74
2022/12/31 13:23:57;;;;;;;;;;;16.10;99.90;;;;;;5074585;28;19967;-74
2022/12/31 13:26:27;;;;;;;;;;;16.00;99.90;;;;;;5075334;28;20806;-72
2022/12/31 13:28:55;;;;;;;;;;;16.00;99.90;;;;;;5075655;28;19932;-68
2022/12/31 13:31:26;;;;;;;;;;;16.00;99.90;;;;;;5070794;28;19924;-74
2022/12/31 13:33:55;;;;;;;;;;;16.00;99.90;;;;;;5077190;28;20036;-73
2022/12/31 13:36:23;;;;;;;;;;;16.00;99.90;;;;;;5068948;28;20449;-74
2022/12/31 13:38:52;;;;;;;;;;;16.00;99.90;;;;;;5072345;28;20446;-74
2022/12/31 13:41:22;;;;;;;;;;;16.00;99.90;;;;;;5069405;28;20387;-74
2022/12/31 13:43:51;;;;;;;;;;;16.00;99.90;;;;;;5074036;28;19940;-74
2022/12/31 13:46:22;;;;;;;;;;;15.90;99.90;;;;;;5072073;28;20005;-73
2022/12/31 13:48:52;;;;;;;;;;;16.00;99.90;;;;;;5074448;28;20032;-69
2022/12/31 13:51:24;;;;;;;;;;;16.00;99.90;;;;;;5067749;28;20381;-74
2022/12/31 13:53:57;;;;;;;;;;;16.00;99.90;;;;;;5074711;28;20031;-74
2022/12/31 13:56:27;;;;;;;;;;;16.10;99.90;;;;;;5074291;28;19931;-75
2022/12/31 13:58:56;;;;;;;;;;;16.00;99.90;;;;;;5070858;28;20010;-75
2022/12/31 14:01:25;;;;;;;;;;;16.10;99.90;;;;;;5071385;28;19939;-75
2022/12/31 14:03:56;;;;;;;;;;;16.10;99.90;;;;;;5074886;28;19932;-76
2022/12/31 14:06:25;;;;;;;;;;;16.10;99.90;;;;;;5079198;28;19928;-74
2022/12/31 14:08:53;;;;;;;;;;;16.10;99.90;;;;;;5078886;28;19951;-75
2022/12/31 14:11:23;;;;;;;;;;;16.10;99.90;;;;;;5075416;28;19932;-74
2022/12/31 14:13:56;;;;;;;;;;;16.00;99.90;;;;;;5082789;28;20014;-74
2022/12/31 14:16:28;;;;;;;;;;;16.00;99.90;;;;;;5075316;28;19924;-75
2022/12/31 14:18:59;;;;;;;;;;;16.00;99.90;;;;;;5077752;28;19942;-74
2022/12/31 14:21:29;;;;;;;;;;;16.10;99.90;;;;;;5075532;28;20367;-77
2022/12/31 14:24:02;;;;;;;;;;;16.00;99.90;;;;;;5081490;28;19924;-75
2022/12/31 14:26:30;;;;;;;;;;;16.00;99.90;;;;;;5079552;28;19932;-74
2022/12/31 14:29:03;;;;;;;;;;;16.00;99.90;;;;;;5074260;28;19928;-75
2022/12/31 14:31:37;;;;;;;;;;;16.00;99.90;;;;;;5072785;28;20022;-74
2022/12/31 14:34:08;;;;;;;;;;;16.00;99.90;;;;;;5082136;28;19924;-74
2022/12/31 14:36:53;;;;;;;;;;;16.00;99.90;;;;;;5073282;28;21004;-75
2022/12/31 14:39:29;;;;;;;;;;;16.00;99.90;;;;;;5072868;28;19975;-76